Autoridad de Aeronautica Civil de Panamá


taf




 

AERÓDROMOS

 

PRONOSTICO DE AERÓDROMO
TAF

AEROPUERTO INTL. DE TOCUMEN:


TAF MPTO 071100Z 0712/0818 29006KT 9999 SCT018 TEMPO 0713/0715 18005KT PROB40 TEMPO 0715/0719 18008KT 6000 TSRA SCT015CB BKN080 TEMPO 0804/0808 VRB02KT=
AEROPUERTO MARCOS A. GELABERT:


TAF MPMG 071100Z 0712/0724 33006KT 9999 SCT018 SCT090 TEMPO 0712/0714 VRB02 PROB40 TEMPO 0718/0722 18008KT 6000 TSRA SCT015CB BKN080=
AEROPUERTO ENRIQUE MALEK:


TAF MPTO 071100Z 0712/0818 29006KT 9999 SCT018 TEMPO 0713/0715 18005KT PROB40 TEMPO 0715/0719 18008KT 6000 TSRA SCT015CB BKN080 TEMPO 0804/0808 VRB02KT=
AEROPUERTO PANAMA PACIFICO:


TAF MPPA 071100Z 0712/0818 00000KT 9999 SCT018 SCT090 PROB40 TEMPO 0717/0721 19008KT 6000 TSRA SCT015CB BKN080 TEMPO 0721/0801 02006KT=
AEROPUERTO SCARLETT MARTÍNEZ:


TAF MPSM 071100Z 0712/0818 34006KT 9999 SCT018 SCT090 PROB30 0719/0723 18008KT 6000 TSRA SCT015CB BKN080=


Contador: 2973